createdAt,value
2023-04-26T00:02:19.731Z,98836.73
2023-04-26T00:04:56.279Z,98840.91
2023-04-26T00:07:28.825Z,98836.48
2023-04-26T00:09:59.585Z,98835.73
2023-04-26T00:12:30.648Z,98837.80
2023-04-26T00:15:01.401Z,98841.34
2023-04-26T00:17:33.012Z,98841.20
2023-04-26T00:20:06.634Z,98842.58
2023-04-26T00:22:37.532Z,98844.23
2023-04-26T00:25:09.906Z,98849.00
2023-04-26T00:27:40.689Z,98847.17
2023-04-26T00:30:13.158Z,98844.17
2023-04-26T00:32:43.947Z,98840.06
2023-04-26T00:35:14.898Z,98837.30
2023-04-26T00:37:45.585Z,98842.77
2023-04-26T00:40:17.490Z,98842.19
2023-04-26T00:42:48.379Z,98842.35
2023-04-26T00:45:19.201Z,98846.29
2023-04-26T00:47:49.979Z,98850.48
2023-04-26T00:50:21.685Z,98852.70
2023-04-26T00:52:53.047Z,98849.41
2023-04-26T00:55:27.135Z,98849.77
2023-04-26T00:57:57.945Z,98852.48
2023-04-26T01:00:29.851Z,98857.91
2023-04-26T01:03:01.437Z,98850.98
2023-04-26T01:05:33.838Z,98854.43
2023-04-26T01:08:05.446Z,98852.23
2023-04-26T01:10:37.258Z,98851.80
2023-04-26T01:13:08.313Z,98856.23
2023-04-26T01:15:39.666Z,98856.02
2023-04-26T01:18:10.394Z,98857.34
2023-04-26T01:20:41.780Z,98857.70
2023-04-26T01:23:12.750Z,98858.58
2023-04-26T01:25:44.127Z,98857.71
2023-04-26T01:28:14.889Z,98855.88
2023-04-26T01:30:45.870Z,98861.70
2023-04-26T01:33:17.283Z,98862.70
2023-04-26T01:35:47.911Z,98866.02
2023-04-26T01:38:22.743Z,98870.85
2023-04-26T01:40:53.415Z,98873.73
2023-04-26T01:43:24.743Z,98871.83
2023-04-26T01:45:55.486Z,98874.98
2023-04-26T01:48:26.439Z,98870.23
2023-04-26T01:50:57.494Z,98868.62
2023-04-26T01:53:28.198Z,98875.61
2023-04-26T01:56:01.493Z,98875.44
2023-04-26T01:58:32.640Z,98874.75
2023-04-26T02:01:10.400Z,98876.20
2023-04-26T02:03:41.613Z,98872.38
2023-04-26T02:06:12.386Z,98877.31
2023-04-26T02:08:43.179Z,98874.56
2023-04-26T02:11:13.860Z,98873.86
2023-04-26T02:13:44.583Z,98873.16
2023-04-26T02:16:17.027Z,98877.48
2023-04-26T02:18:49.831Z,98877.62
2023-04-26T02:21:20.869Z,98873.50
2023-04-26T02:23:51.694Z,98875.00
2023-04-26T02:26:22.383Z,98872.16
2023-04-26T02:28:53.185Z,98874.77
2023-04-26T02:31:24.107Z,98878.92
2023-04-26T02:33:54.861Z,98873.70
2023-04-26T02:36:27.421Z,98870.23
2023-04-26T02:38:58.089Z,98866.08
2023-04-26T02:41:28.861Z,98872.58
2023-04-26T02:43:59.848Z,98873.27
2023-04-26T02:46:30.623Z,98872.44
2023-04-26T02:49:01.425Z,98870.21
2023-04-26T02:51:33.342Z,98869.89
2023-04-26T02:54:06.397Z,98866.66
2023-04-26T02:56:37.673Z,98866.63
2023-04-26T02:59:08.661Z,98862.89
2023-04-26T03:01:39.782Z,98867.09
2023-04-26T03:04:10.569Z,98875.52
2023-04-26T03:06:41.658Z,98879.48
2023-04-26T03:09:12.552Z,98888.35
2023-04-26T03:11:43.230Z,98892.94
2023-04-26T03:14:14.052Z,98892.74
2023-04-26T03:16:48.620Z,98894.40
2023-04-26T03:19:19.505Z,98896.79
2023-04-26T03:21:50.231Z,98897.52
2023-04-26T03:24:21.198Z,98894.32
2023-04-26T03:26:52.323Z,98901.88
2023-04-26T03:29:23.069Z,98906.70
2023-04-26T03:31:53.975Z,98907.14
2023-04-26T03:34:24.855Z,98905.70
2023-04-26T03:36:56.205Z,98907.19
2023-04-26T03:39:26.839Z,98906.69
2023-04-26T03:41:57.493Z,98908.88
2023-04-26T03:44:30.539Z,98911.29
2023-04-26T03:47:02.889Z,98917.92
2023-04-26T03:49:33.688Z,98923.33
2023-04-26T03:52:04.488Z,98923.83
2023-04-26T03:54:35.196Z,98921.37
2023-04-26T03:57:06.189Z,98918.58
2023-04-26T03:59:37.237Z,98923.31
2023-04-26T04:02:08.260Z,98925.59
2023-04-26T04:04:39.105Z,98927.58
2023-04-26T04:07:09.862Z,98930.45
2023-04-26T04:09:40.702Z,98934.40
2023-04-26T04:12:11.750Z,98937.70
2023-04-26T04:14:42.591Z,98936.80
2023-04-26T04:17:13.495Z,98936.92
2023-04-26T04:19:45.070Z,98939.61
2023-04-26T04:22:15.879Z,98939.66
2023-04-26T04:24:47.591Z,98941.45
2023-04-26T04:27:18.181Z,98945.68
2023-04-26T04:29:49.106Z,98950.63
2023-04-26T04:32:19.777Z,98946.65
2023-04-26T04:34:51.216Z,98950.81
2023-04-26T04:37:23.130Z,98949.50
2023-04-26T04:39:54.715Z,98949.50
2023-04-26T04:42:27.255Z,98949.20
2023-04-26T04:44:59.650Z,98955.15
2023-04-26T04:47:30.274Z,98960.81
2023-04-26T04:50:02.237Z,98964.30
2023-04-26T04:52:33.240Z,98969.48
2023-04-26T04:55:04.963Z,98969.94
2023-04-26T04:57:36.184Z,98972.65
2023-04-26T05:00:10.597Z,98976.14
2023-04-26T05:02:41.544Z,98974.91
2023-04-26T05:05:13.645Z,98978.41
2023-04-26T05:07:44.335Z,98977.57
2023-04-26T05:10:16.217Z,98979.36
2023-04-26T05:12:47.190Z,98982.14
2023-04-26T05:15:18.052Z,98984.25
2023-04-26T05:17:49.505Z,98987.94
2023-04-26T05:20:20.702Z,98992.13
2023-04-26T05:22:51.447Z,98996.92
2023-04-26T05:25:23.154Z,98994.73
2023-04-26T05:27:54.018Z,98993.61
2023-04-26T05:30:25.364Z,98998.20
2023-04-26T05:32:57.250Z,98999.97
2023-04-26T05:35:28.323Z,99001.05
2023-04-26T05:37:59.432Z,99001.02
2023-04-26T05:40:30.415Z,99001.44
2023-04-26T05:43:01.249Z,99004.41
2023-04-26T05:45:32.137Z,99004.84
2023-04-26T05:48:03.200Z,99003.11
2023-04-26T05:50:34.693Z,99007.64
2023-04-26T05:53:05.428Z,99012.82
2023-04-26T05:55:36.342Z,99012.18
2023-04-26T05:58:07.728Z,99014.41
2023-04-26T06:00:38.900Z,99016.48
2023-04-26T06:03:10.013Z,99021.40
2023-04-26T06:05:41.497Z,99026.23
2023-04-26T06:08:12.601Z,99024.63
2023-04-26T06:10:43.677Z,99023.70
2023-04-26T06:13:14.372Z,99027.14
2023-04-26T06:15:45.605Z,99027.84
2023-04-26T06:18:16.621Z,99026.10
2023-04-26T06:20:48.052Z,99023.09
2023-04-26T06:23:20.325Z,99025.21
2023-04-26T06:25:53.329Z,99027.88
2023-04-26T06:28:24.131Z,99029.48
2023-04-26T06:30:55.075Z,99026.41
2023-04-26T06:33:26.251Z,99026.11
2023-04-26T06:35:56.980Z,99023.48
2023-04-26T06:38:28.034Z,99024.63
2023-04-26T06:40:58.766Z,99025.88
2023-04-26T06:43:29.434Z,99028.08
2023-04-26T06:46:00.457Z,99027.13
2023-04-26T06:48:31.184Z,99035.14
2023-04-26T06:51:06.683Z,99030.21
2023-04-26T06:53:37.575Z,99033.08
2023-04-26T06:56:09.055Z,99036.98
2023-04-26T06:58:40.092Z,99044.48
2023-04-26T07:01:10.932Z,99041.79
2023-04-26T07:03:43.103Z,99046.20
2023-04-26T07:06:14.243Z,99049.63
2023-04-26T07:08:44.828Z,99051.45
2023-04-26T07:11:15.909Z,99054.71
2023-04-26T07:13:46.693Z,99051.08
2023-04-26T07:16:18.147Z,99049.34
2023-04-26T07:18:49.156Z,99054.81
2023-04-26T07:21:20.251Z,99056.37
2023-04-26T07:23:54.697Z,99056.84
2023-04-26T07:26:27.016Z,99058.40
2023-04-26T07:28:58.106Z,99056.11
2023-04-26T07:31:28.925Z,99060.38
2023-04-26T07:33:59.902Z,99061.91
2023-04-26T07:36:31.724Z,99060.98
2023-04-26T07:39:02.729Z,99065.71
2023-04-26T07:41:33.553Z,99067.88
2023-04-26T07:44:04.645Z,99067.95
2023-04-26T07:46:35.762Z,99075.64
2023-04-26T07:49:06.707Z,99071.04
2023-04-26T07:51:39.140Z,99069.54
2023-04-26T07:54:09.801Z,99072.67
2023-04-26T07:56:40.766Z,99071.52
2023-04-26T07:59:11.590Z,99076.23
2023-04-26T08:01:42.521Z,99076.39
2023-04-26T08:04:13.759Z,99077.12
2023-04-26T08:06:45.363Z,99084.05
2023-04-26T08:09:16.195Z,99081.59
2023-04-26T08:11:47.356Z,99080.98
2023-04-26T08:14:18.585Z,99080.02
2023-04-26T08:16:49.461Z,99081.83
2023-04-26T08:19:20.268Z,99084.70
2023-04-26T08:21:51.300Z,99085.18
2023-04-26T08:24:22.001Z,99083.62
2023-04-26T08:26:52.893Z,99080.55
2023-04-26T08:29:24.257Z,99083.77
2023-04-26T08:31:54.986Z,99083.38
2023-04-26T08:34:26.973Z,99078.15
2023-04-26T08:36:58.223Z,99075.67
2023-04-26T08:39:29.600Z,99082.15
2023-04-26T08:42:14.676Z,99081.05
2023-04-26T08:44:46.500Z,99075.40
2023-04-26T08:47:20.337Z,99077.39
2023-04-26T08:49:59.845Z,99075.64
2023-04-26T08:52:32.328Z,99073.55
2023-04-26T08:55:05.000Z,99075.15
2023-04-26T08:57:36.617Z,99082.67
2023-04-26T09:00:12.464Z,99080.86
2023-04-26T09:02:51.194Z,99082.15
2023-04-26T09:05:24.867Z,99081.06
2023-04-26T09:08:01.259Z,99076.29
2023-04-26T09:10:33.481Z,99073.84
2023-04-26T09:13:04.311Z,99071.07
2023-04-26T09:15:35.142Z,99074.45
2023-04-26T09:21:10.219Z,99075.68
2023-04-26T09:24:01.848Z,99072.61
2023-04-26T09:26:32.645Z,99074.43
2023-04-26T09:29:16.503Z,99080.29
2023-04-26T09:31:49.817Z,99082.16
2023-04-26T09:34:21.004Z,99083.90
2023-04-26T09:36:53.709Z,99085.09
2023-04-26T09:39:38.690Z,99086.34
2023-04-26T09:42:10.176Z,99087.80
2023-04-26T09:44:43.384Z,99084.55
2023-04-26T09:47:14.267Z,99086.73
2023-04-26T09:49:50.635Z,99088.14
2023-04-26T09:52:22.105Z,99086.11
2023-04-26T09:54:54.566Z,99083.59
2023-04-26T09:57:25.498Z,99083.27
2023-04-26T09:59:57.577Z,99084.93
2023-04-26T10:02:30.179Z,99084.80
2023-04-26T10:05:02.465Z,99081.16
2023-04-26T10:07:33.669Z,99078.04
2023-04-26T10:10:04.930Z,99077.15
2023-04-26T10:12:37.130Z,99076.75
2023-04-26T10:15:10.117Z,99072.81
2023-04-26T10:17:41.118Z,99077.20
2023-04-26T10:20:14.863Z,99072.75
2023-04-26T10:22:53.142Z,99071.66
2023-04-26T10:25:35.670Z,99068.77
2023-04-26T10:28:07.119Z,99065.70
2023-04-26T10:30:57.604Z,99060.20
2023-04-26T10:33:28.882Z,99061.14
2023-04-26T10:36:21.246Z,99071.20
2023-04-26T10:39:22.350Z,99074.83
2023-04-26T10:42:13.071Z,99080.24
2023-04-26T10:44:45.916Z,99076.44
2023-04-26T10:47:30.359Z,99074.81
2023-04-26T10:50:09.624Z,99067.36
2023-04-26T10:53:04.253Z,99061.23
2023-04-26T10:55:41.948Z,99057.64
2023-04-26T10:58:30.037Z,99059.04
2023-04-26T11:01:11.910Z,99054.89
2023-04-26T11:03:44.135Z,99055.75
2023-04-26T11:06:17.538Z,99058.89
2023-04-26T11:08:50.904Z,99064.42
2023-04-26T11:11:27.422Z,99065.52
2023-04-26T11:13:58.703Z,99065.65
2023-04-26T11:16:31.812Z,99063.77
2023-04-26T11:19:02.858Z,99058.88
2023-04-26T11:21:33.829Z,99061.46
2023-04-26T11:24:05.172Z,99059.96
2023-04-26T11:26:37.291Z,99064.36
2023-04-26T11:29:13.521Z,99071.52
2023-04-26T11:31:44.401Z,99070.91
2023-04-26T11:34:15.482Z,99072.44
2023-04-26T11:36:47.754Z,99077.52
2023-04-26T11:39:20.709Z,99083.84
2023-04-26T11:41:51.828Z,99083.93
2023-04-26T11:44:23.095Z,99075.69
2023-04-26T11:46:54.457Z,99075.02
2023-04-26T11:49:25.770Z,99076.38
2023-04-26T11:51:56.906Z,99076.45
2023-04-26T11:54:36.716Z,99081.67
2023-04-26T11:57:18.700Z,99079.04
2023-04-26T11:59:49.670Z,99082.02
2023-04-26T12:02:25.489Z,99083.04
2023-04-26T12:05:03.892Z,99086.43
2023-04-26T12:07:38.905Z,99087.67
2023-04-26T12:10:19.073Z,99085.89
2023-04-26T12:12:52.444Z,99090.94
2023-04-26T12:15:26.081Z,99092.07
2023-04-26T12:17:58.563Z,99093.25
2023-04-26T12:20:40.240Z,99092.00
2023-04-26T12:23:12.761Z,99092.44
2023-04-26T12:25:53.396Z,99094.87
2023-04-26T12:28:25.156Z,99092.08
2023-04-26T12:30:56.294Z,99091.64
2023-04-26T12:33:27.057Z,99093.41
2023-04-26T12:36:00.328Z,99094.05
2023-04-26T12:38:32.459Z,99095.13
2023-04-26T12:41:03.199Z,99093.69
2023-04-26T12:43:34.062Z,99092.41
2023-04-26T12:46:05.608Z,99094.69
2023-04-26T12:48:36.793Z,99087.73
2023-04-26T12:51:08.587Z,99087.46
2023-04-26T12:53:39.504Z,99089.23
2023-04-26T12:56:10.712Z,99091.09
2023-04-26T12:58:41.888Z,99095.00
2023-04-26T13:01:14.663Z,99089.90
2023-04-26T13:03:46.203Z,99092.67
2023-04-26T13:06:17.550Z,99093.30
2023-04-26T13:08:48.359Z,99093.77
2023-04-26T13:11:19.451Z,99091.81
2023-04-26T13:13:50.586Z,99096.42
2023-04-26T13:16:21.570Z,99097.87
2023-04-26T13:18:52.359Z,99096.45
2023-04-26T13:21:23.271Z,99094.73
2023-04-26T13:23:54.278Z,99098.39
2023-04-26T13:26:27.540Z,99100.04
2023-04-26T13:28:59.025Z,99099.47
2023-04-26T13:31:29.988Z,99099.92
2023-04-26T13:34:01.114Z,99092.29
2023-04-26T13:36:32.161Z,99098.29
2023-04-26T13:39:05.150Z,99098.13
2023-04-26T13:41:36.142Z,99098.40
2023-04-26T13:44:07.275Z,99099.86
2023-04-26T13:46:38.201Z,99097.95
2023-04-26T13:49:10.354Z,99098.76
2023-04-26T13:51:41.818Z,99097.74
2023-04-26T13:54:13.157Z,99101.70
2023-04-26T13:56:44.015Z,99107.24
2023-04-26T13:59:14.918Z,99107.02
2023-04-26T14:01:46.572Z,99113.44
2023-04-26T14:04:17.767Z,99108.00
2023-04-26T14:06:48.806Z,99107.07
2023-04-26T14:09:19.686Z,99110.89
2023-04-26T14:12:04.429Z,99110.34
2023-04-26T14:14:39.204Z,99105.30
2023-04-26T14:17:10.188Z,99105.23
2023-04-26T14:19:42.324Z,99101.19
2023-04-26T14:22:13.363Z,99103.89
2023-04-26T14:24:44.154Z,99101.70
2023-04-26T14:27:15.064Z,99105.68
2023-04-26T14:29:46.113Z,99103.25
2023-04-26T14:32:17.068Z,99105.71
2023-04-26T14:34:48.161Z,99106.27
2023-04-26T14:37:22.584Z,99104.69
2023-04-26T14:39:54.016Z,99107.84
2023-04-26T14:42:24.827Z,99100.95
2023-04-26T14:44:55.969Z,99101.06
2023-04-26T14:47:27.567Z,99101.05
2023-04-26T14:49:59.586Z,99102.57
2023-04-26T14:52:31.466Z,99106.83
2023-04-26T14:55:02.539Z,99106.38
2023-04-26T14:57:34.819Z,99104.80
2023-04-26T15:00:08.798Z,99103.48
2023-04-26T15:02:38.159Z,99102.19
2023-04-26T15:05:10.852Z,99107.06
2023-04-26T15:07:43.252Z,99102.28
2023-04-26T15:10:14.069Z,99105.03
2023-04-26T15:12:45.143Z,99106.05
2023-04-26T15:15:16.598Z,99107.23
2023-04-26T15:17:47.392Z,99111.98
2023-04-26T15:20:18.825Z,99108.66
2023-04-26T15:22:50.141Z,99110.09
2023-04-26T15:25:21.282Z,99112.45
2023-04-26T15:27:52.158Z,99114.65
2023-04-26T15:30:23.230Z,99119.83
2023-04-26T15:32:54.271Z,99119.31
2023-04-26T15:35:25.568Z,99118.39
2023-04-26T15:37:56.612Z,99115.95
2023-04-26T15:40:27.879Z,99119.59
2023-04-26T15:42:59.167Z,99118.91
2023-04-26T15:45:30.472Z,99117.16
2023-04-26T15:48:01.559Z,99113.92
2023-04-26T15:50:32.963Z,99114.98
2023-04-26T15:53:04.034Z,99117.80
2023-04-26T15:55:37.138Z,99119.88
2023-04-26T15:58:10.526Z,99123.98
2023-04-26T16:00:42.111Z,99121.89
2023-04-26T16:03:13.525Z,99126.28
2023-04-26T16:05:44.670Z,99127.35
2023-04-26T16:08:24.392Z,99124.23
2023-04-26T16:11:04.933Z,99122.45
2023-04-26T16:13:36.584Z,99122.14
2023-04-26T16:16:12.657Z,99125.44
2023-04-26T16:18:44.466Z,99126.45
2023-04-26T16:21:16.305Z,99124.89
2023-04-26T16:23:47.338Z,99125.11
2023-04-26T16:26:18.317Z,99124.23
2023-04-26T16:28:50.587Z,99124.98
2023-04-26T16:31:22.539Z,99123.66
2023-04-26T16:33:53.903Z,99128.93
2023-04-26T16:36:26.469Z,99129.13
2023-04-26T16:38:57.682Z,99125.30
2023-04-26T16:41:28.975Z,99124.41
2023-04-26T16:43:59.991Z,99130.67
2023-04-26T16:46:31.249Z,99128.89
2023-04-26T16:49:03.265Z,99130.09
2023-04-26T16:51:34.588Z,99132.04
2023-04-26T16:54:05.750Z,99132.43
2023-04-26T16:56:36.849Z,99135.70
2023-04-26T16:59:07.945Z,99132.44
2023-04-26T17:01:39.060Z,99135.65
2023-04-26T17:04:12.930Z,99137.03
2023-04-26T17:06:45.872Z,99134.61
2023-04-26T17:09:16.769Z,99137.85
2023-04-26T17:11:47.648Z,99137.95
2023-04-26T17:14:18.787Z,99144.39
2023-04-26T17:16:50.030Z,99142.38
2023-04-26T17:19:21.863Z,99138.73
2023-04-26T17:21:52.681Z,99141.44
2023-04-26T17:24:23.994Z,99147.04
2023-04-26T17:26:54.944Z,99147.66
2023-04-26T17:29:26.200Z,99147.26
2023-04-26T17:31:57.136Z,99150.34
2023-04-26T17:34:28.171Z,99150.80
2023-04-26T17:36:59.036Z,99152.22
2023-04-26T17:39:29.926Z,99151.02
2023-04-26T17:42:00.977Z,99149.12
2023-04-26T17:44:31.998Z,99149.76
2023-04-26T17:47:02.960Z,99149.66
2023-04-26T17:49:34.220Z,99148.04
2023-04-26T17:52:05.615Z,99148.88
2023-04-26T17:54:37.352Z,99149.24
2023-04-26T17:57:08.496Z,99151.95
2023-04-26T17:59:39.380Z,99153.19
2023-04-26T18:02:10.372Z,99155.64
2023-04-26T18:04:41.820Z,99155.02
2023-04-26T18:07:13.327Z,99156.98
2023-04-26T18:09:44.441Z,99159.63
2023-04-26T18:12:15.535Z,99165.42
2023-04-26T18:14:46.522Z,99164.24
2023-04-26T18:17:17.888Z,99167.02
2023-04-26T18:19:49.045Z,99170.84
2023-04-26T18:22:22.474Z,99172.13
2023-04-26T18:24:53.871Z,99174.05
2023-04-26T18:27:25.149Z,99177.70
2023-04-26T18:29:56.505Z,99180.74
2023-04-26T18:32:27.905Z,99179.45
2023-04-26T18:34:59.408Z,99174.27
2023-04-26T18:37:30.449Z,99176.55
2023-04-26T18:40:01.952Z,99177.02
2023-04-26T18:42:32.949Z,99178.68
2023-04-26T18:45:04.152Z,99183.84
2023-04-26T18:47:35.131Z,99190.77
2023-04-26T18:50:07.341Z,99191.84
2023-04-26T18:52:39.789Z,99194.02
2023-04-26T18:55:11.979Z,99194.02
2023-04-26T18:57:42.983Z,99196.57
2023-04-26T19:00:16.171Z,99196.69
2023-04-26T19:02:47.235Z,99203.35
2023-04-26T19:05:18.582Z,99203.27
2023-04-26T19:07:52.720Z,99206.92
2023-04-26T19:10:24.189Z,99210.00
2023-04-26T19:12:55.351Z,99213.14
2023-04-26T19:15:26.754Z,99211.52
2023-04-26T19:17:58.641Z,99211.91
2023-04-26T19:20:29.900Z,99211.84
2023-04-26T19:23:01.541Z,99213.59
2023-04-26T19:25:32.585Z,99209.88
2023-04-26T19:28:03.633Z,99206.20
2023-04-26T19:30:34.588Z,99212.61
2023-04-26T19:33:05.854Z,99217.02
2023-04-26T19:35:37.187Z,99216.98
2023-04-26T19:38:08.124Z,99220.52
2023-04-26T19:40:39.870Z,99217.08
2023-04-26T19:43:11.295Z,99217.65
2023-04-26T19:45:44.739Z,99220.77
2023-04-26T19:48:16.272Z,99219.87
2023-04-26T19:50:48.156Z,99219.48
2023-04-26T19:53:19.321Z,99222.41
2023-04-26T19:55:50.924Z,99225.73
2023-04-26T19:58:22.123Z,99226.28
2023-04-26T20:00:53.256Z,99227.55
2023-04-26T20:03:24.552Z,99228.80
2023-04-26T20:05:55.654Z,99229.77
2023-04-26T20:08:26.641Z,99224.38
2023-04-26T20:10:57.815Z,99227.16
2023-04-26T20:13:29.113Z,99232.05
2023-04-26T20:16:00.981Z,99234.61
2023-04-26T20:18:31.818Z,99237.16
2023-04-26T20:21:03.054Z,99238.60
2023-04-26T20:23:33.898Z,99242.48
2023-04-26T20:26:05.297Z,99242.61
2023-04-26T20:28:37.489Z,99244.95
2023-04-26T20:31:10.219Z,99246.68
2023-04-26T20:33:41.266Z,99250.05
2023-04-26T20:36:12.897Z,99247.73
2023-04-26T20:38:43.769Z,99249.63
2023-04-26T20:41:14.645Z,99249.16
2023-04-26T20:43:45.676Z,99248.49
2023-04-26T20:46:16.505Z,99250.84
2023-04-26T20:48:48.031Z,99251.46
2023-04-26T20:51:19.137Z,99254.70
2023-04-26T20:53:50.255Z,99261.08
2023-04-26T20:56:21.211Z,99259.45
2023-04-26T20:58:52.055Z,99261.88
2023-04-26T21:01:23.328Z,99263.86
2023-04-26T21:03:54.659Z,99265.26
2023-04-26T21:06:25.694Z,99267.71
2023-04-26T21:08:56.910Z,99265.28
2023-04-26T21:11:27.804Z,99261.48
2023-04-26T21:13:59.010Z,99269.35
2023-04-26T21:16:29.979Z,99266.98
2023-04-26T21:19:01.166Z,99265.38
2023-04-26T21:21:32.675Z,99270.42
2023-04-26T21:24:04.170Z,99275.27
2023-04-26T21:26:35.461Z,99271.92
2023-04-26T21:29:06.824Z,99273.78
2023-04-26T21:31:37.934Z,99272.95
2023-04-26T21:34:09.677Z,99273.80
2023-04-26T21:36:41.082Z,99277.06
2023-04-26T21:39:12.176Z,99277.61
2023-04-26T21:41:43.770Z,99271.73
2023-04-26T21:44:14.708Z,99274.89
2023-04-26T21:46:45.973Z,99274.19
2023-04-26T21:49:17.645Z,99274.31
2023-04-26T21:51:48.572Z,99274.54
2023-04-26T21:54:19.512Z,99277.80
2023-04-26T21:56:50.348Z,99275.90
2023-04-26T21:59:21.360Z,99279.77
2023-04-26T22:01:52.369Z,99282.47
2023-04-26T22:04:23.534Z,99279.89
2023-04-26T22:06:54.307Z,99284.66
2023-04-26T22:09:25.436Z,99287.43
2023-04-26T22:11:56.376Z,99289.06
2023-04-26T22:14:27.139Z,99296.06
2023-04-26T22:16:58.045Z,99299.89
2023-04-26T22:19:29.022Z,99298.12
2023-04-26T22:21:59.853Z,99294.61
2023-04-26T22:24:30.640Z,99299.30
2023-04-26T22:27:02.522Z,99299.46
2023-04-26T22:29:33.393Z,99301.95
2023-04-26T22:32:04.412Z,99302.33
2023-04-26T22:34:35.312Z,99301.64
2023-04-26T22:37:19.621Z,99302.04
2023-04-26T22:39:53.710Z,99303.83
2023-04-26T22:42:24.638Z,99304.20
2023-04-26T22:44:57.994Z,99300.69
2023-04-26T22:47:28.887Z,99306.95
2023-04-26T22:49:59.702Z,99313.38
2023-04-26T22:52:32.116Z,99316.69
2023-04-26T22:55:03.225Z,99320.45
2023-04-26T22:57:34.054Z,99319.64
2023-04-26T23:00:05.617Z,99319.84
2023-04-26T23:02:36.688Z,99318.90
2023-04-26T23:05:10.333Z,99322.97
2023-04-26T23:07:41.911Z,99328.55
2023-04-26T23:10:13.721Z,99325.16
2023-04-26T23:12:44.912Z,99329.66
2023-04-26T23:15:15.881Z,99331.85
2023-04-26T23:17:46.797Z,99333.40
2023-04-26T23:20:17.894Z,99333.38
2023-04-26T23:22:50.271Z,99334.38
2023-04-26T23:25:21.592Z,99339.73
2023-04-26T23:27:52.964Z,99343.10
2023-04-26T23:30:24.093Z,99341.29
2023-04-26T23:32:54.793Z,99342.30
2023-04-26T23:35:25.585Z,99345.27
2023-04-26T23:37:56.716Z,99347.86
2023-04-26T23:40:27.706Z,99351.43
2023-04-26T23:42:58.474Z,99352.67
2023-04-26T23:45:29.185Z,99350.75
2023-04-26T23:47:59.896Z,99350.73
2023-04-26T23:50:30.730Z,99346.88
2023-04-26T23:53:01.470Z,99344.73
2023-04-26T23:55:32.622Z,99345.16
2023-04-26T23:58:03.344Z,99340.98
